»·PEaware :: FDX258 KSAN-KLAS

FDX258 :: KSAN-KLAS

FLIGHT INFORMATION

Flight Status: Arrived
Operator:
Federal Express
More flights by this operator :: More flights under this callsign
Pilot: Brad M. (22842)
Aircraft: Unknown
(B77F)
More flights by this aircraft type
Origin: KSAN San Diego Intl-Lindbergh
United States
Destination: KLAS McCarran Intl
United States
More flights between these airports :: More routes between these airports
Route: +PADRZ2 CHKNN SEBBY YELAH MISEN KEPEC6
File this flight plan on PilotEdge
Remarks:
Altitude:
(Current/Filed)
29,000ft
Speed:
(Current/Filed)
400kts
Departed: 28-Apr-19 02:48 PM
Arrived: 28-Apr-19 03:41 PM
Distance/Time
Traveled:
225nm/0:53
Distance/Time
To Go:
Arrived

Flight Plot

Page will automatically refresh every two minutes.

Flight plan parsing failed; only flown route is shown


Map Options




Map Legend


Flown Route
Filed Route
Departure Airport
Arrival Airport
Navaid (VOR, NDB)
Fix

Horizontal Profiles

Position Reports

Time Latitude Longitude Heading Altitude Ground
Speed
28-Apr-19 14:03 32.736646 -117.185036 354 28ft 0kts
28-Apr-19 14:04 32.736646 -117.185036 354 28ft 0kts
28-Apr-19 14:05 32.736646 -117.185036 354 28ft 0kts
28-Apr-19 14:06 32.736646 -117.185036 354 28ft 0kts
28-Apr-19 14:07 32.736646 -117.185036 354 28ft 0kts
28-Apr-19 14:08 32.736646 -117.185036 354 28ft 0kts
28-Apr-19 14:09 32.736646 -117.185036 354 28ft 0kts
28-Apr-19 14:10 32.736646 -117.185036 354 28ft 0kts
28-Apr-19 14:11 32.736646 -117.185036 354 28ft 0kts
28-Apr-19 14:12 32.736646 -117.185036 354 28ft 0kts
28-Apr-19 14:13 32.736646 -117.185036 354 28ft 0kts
28-Apr-19 14:14 32.736646 -117.185036 354 28ft 0kts
28-Apr-19 14:15 32.736646 -117.185036 354 28ft 0kts
28-Apr-19 14:16 32.736646 -117.185036 354 28ft 0kts
28-Apr-19 14:17 32.736646 -117.185036 354 28ft 0kts
28-Apr-19 14:18 32.736646 -117.185036 354 28ft 0kts
28-Apr-19 14:19 32.736646 -117.185036 354 28ft 0kts
28-Apr-19 14:20 32.736646 -117.185036 354 28ft 0kts
28-Apr-19 14:21 32.736646 -117.185036 354 28ft 0kts
28-Apr-19 14:22 32.736646 -117.185036 354 28ft 0kts
28-Apr-19 14:23 32.736646 -117.185036 354 28ft 0kts
28-Apr-19 14:24 32.736646 -117.185036 354 28ft 0kts
28-Apr-19 14:25 32.736646 -117.185036 354 28ft 0kts
28-Apr-19 14:26 32.736646 -117.185036 354 28ft 0kts
28-Apr-19 14:27 32.736646 -117.185036 354 28ft 0kts
28-Apr-19 14:28 32.736646 -117.185036 354 28ft 0kts
28-Apr-19 14:29 32.736619 -117.185032 355 28ft 1kts
28-Apr-19 14:30 32.736103 -117.185191 68 28ft 2kts
28-Apr-19 14:31 32.736323 -117.185522 144 28ft 2kts
28-Apr-19 14:32 32.736344 -117.185540 144 28ft 0kts
28-Apr-19 14:33 32.736344 -117.185540 144 28ft 0kts
28-Apr-19 14:34 32.736344 -117.185540 144 28ft 0kts
28-Apr-19 14:35 32.736237 -117.185449 144 28ft 0kts
28-Apr-19 14:36 32.736237 -117.185449 144 28ft 0kts
28-Apr-19 14:37 32.736237 -117.185449 144 28ft 0kts
28-Apr-19 14:38 32.734919 -117.184342 144 28ft 4kts
28-Apr-19 14:39 32.734167 -117.183933 189 28ft 0kts
28-Apr-19 14:40 32.734167 -117.183933 189 28ft 0kts
28-Apr-19 14:41 32.733165 -117.183312 106 28ft 8kts
28-Apr-19 14:42 32.732593 -117.180969 106 28ft 6kts
28-Apr-19 14:43 32.732010 -117.178563 105 28ft 11kts
28-Apr-19 14:44 32.731132 -117.175627 141 28ft 0kts
28-Apr-19 14:45 32.731132 -117.175627 141 28ft 0kts
28-Apr-19 14:46 32.730208 -117.175227 209 28ft 8kts
28-Apr-19 14:47 32.731607 -117.181613 286 28ft 95kts
28-Apr-19 14:48 32.747723 -117.233036 304 2098ft 184kts
28-Apr-19 14:49 32.782829 -117.289871 304 4126ft 247kts
28-Apr-19 14:50 32.825887 -117.360484 306 7228ft 269kts
28-Apr-19 14:51 32.874223 -117.432698 304 10062ft 292kts
28-Apr-19 14:52 32.928599 -117.518599 304 12004ft 361kts
28-Apr-19 14:53 32.993409 -117.619482 303 14740ft 399kts
28-Apr-19 14:54 33.062972 -117.725776 308 17858ft 417kts
28-Apr-19 14:55 33.152851 -117.819953 315 20827ft 440kts
28-Apr-19 14:56 33.248683 -117.915800 316 23020ft 458kts
28-Apr-19 14:57 33.348031 -118.012328 316 23649ft 468kts
28-Apr-19 14:58 33.449877 -118.111986 315 26182ft 483kts
28-Apr-19 14:59 33.555775 -118.215587 316 28509ft 499kts
28-Apr-19 15:00 33.681166 -118.290343 346 28938ft 521kts
28-Apr-19 15:01 33.816435 -118.234621 44 28937ft 535kts
28-Apr-19 15:02 33.904581 -118.091559 58 28914ft 532kts
28-Apr-19 15:03 33.990391 -117.946317 56 28894ft 533kts
28-Apr-19 15:04 34.076406 -117.800161 56 28920ft 533kts
28-Apr-19 15:05 34.168517 -117.660169 51 28912ft 533kts
28-Apr-19 15:06 34.263497 -117.522358 51 28904ft 533kts
28-Apr-19 15:07 34.357925 -117.383874 51 28893ft 533kts
28-Apr-19 15:08 34.451985 -117.245192 51 28877ft 533kts
28-Apr-19 15:09 34.545667 -117.106253 51 28907ft 532kts
28-Apr-19 15:10 34.639146 -116.967054 51 28877ft 531kts
28-Apr-19 15:11 34.732383 -116.828091 51 28806ft 531kts
28-Apr-19 15:12 34.825301 -116.688309 50 28775ft 531kts
28-Apr-19 15:13 34.930547 -116.568657 36 27014ft 512kts
28-Apr-19 15:14 35.040872 -116.463703 37 24962ft 494kts
28-Apr-19 15:15 35.142549 -116.356420 44 23816ft 476kts
28-Apr-19 15:16 35.232116 -116.241256 45 21847ft 455kts
28-Apr-19 15:17 35.318846 -116.131533 44 19656ft 443kts
28-Apr-19 15:18 35.403646 -116.025079 44 17981ft 427kts
28-Apr-19 15:19 35.483991 -115.923925 43 16805ft 397kts
28-Apr-19 15:20 35.559671 -115.827821 44 15276ft 383kts
28-Apr-19 15:21 35.632209 -115.735308 44 13873ft 368kts
28-Apr-19 15:22 35.701239 -115.647218 44 13058ft 339kts
28-Apr-19 15:23 35.771257 -115.579627 11 13035ft 315kts
28-Apr-19 15:24 35.848304 -115.569860 358 13038ft 312kts
28-Apr-19 15:25 35.910659 -115.566928 358 13030ft 314kts
28-Apr-19 15:26 35.985889 -115.521419 58 12759ft 336kts
28-Apr-19 15:27 36.018815 -115.414262 68 11431ft 319kts
28-Apr-19 15:28 36.027221 -115.312009 94 10295ft 296kts
28-Apr-19 15:29 36.019248 -115.212069 95 9125ft 283kts
28-Apr-19 15:30 36.012865 -115.118546 95 8326ft 257kts
28-Apr-19 15:31 36.007544 -115.032486 94 8023ft 252kts
28-Apr-19 15:32 36.002349 -114.946006 95 8011ft 253kts
28-Apr-19 15:34 36.007817 -114.862387 50 7684ft 250kts
28-Apr-19 15:35 36.068097 -114.844552 323 6851ft 222kts
28-Apr-19 15:36 36.075296 -114.910718 264 5460ft 202kts
28-Apr-19 15:37 36.073430 -114.980673 268 4360ft 194kts
28-Apr-19 15:38 36.073956 -115.041251 268 3403ft 160kts
28-Apr-19 15:39 36.073608 -115.094241 269 2700ft 152kts
28-Apr-19 15:40 36.073658 -115.142722 269 2194ft 82kts
28-Apr-19 15:41 36.075135 -115.151114 317 2194ft 0kts
28-Apr-19 15:42 36.075135 -115.151115 317 2194ft 0kts
28-Apr-19 15:43 36.077847 -115.152583 32 2194ft 8kts
28-Apr-19 15:44 36.078727 -115.150065 96 2194ft 9kts
28-Apr-19 15:45 36.078428 -115.145929 94 2194ft 17kts
28-Apr-19 15:46 36.078215 -115.140463 87 2194ft 14kts
28-Apr-19 15:47 36.078269 -115.136127 89 2194ft 11kts
28-Apr-19 15:48 36.078280 -115.132370 89 2194ft 10kts
28-Apr-19 15:49 36.078280 -115.127884 90 2194ft 14kts
28-Apr-19 15:50 36.080205 -115.126344 0 2194ft 9kts
28-Apr-19 15:50 36.082113 -115.126371 3 2194ft 6kts
28-Apr-19 15:52 36.082380 -115.125564 90 2194ft 0kts
28-Apr-19 15:53 36.082380 -115.125564 90 2194ft 0kts
28-Apr-19 15:54 36.082380 -115.125564 90 2194ft 0kts
28-Apr-19 15:54 36.082380 -115.125564 90 2194ft 0kts
28-Apr-19 15:55 36.082380 -115.125564 90 2194ft 0kts

Navigation Log

Ident Type
Flight plan parsing failed, navigation log unavailable